sensor_id;sensor_type;location;lat;lon;timestamp;temperature;humidity
68764;DHT22;55754;52.038;5.566;2023-04-03T00:00:52;4.90;79.30
68764;DHT22;55754;52.038;5.566;2023-04-03T00:03:18;4.90;79.50
68764;DHT22;55754;52.038;5.566;2023-04-03T00:05:46;4.80;79.50
68764;DHT22;55754;52.038;5.566;2023-04-03T00:08:11;4.80;79.60
68764;DHT22;55754;52.038;5.566;2023-04-03T00:10:37;4.80;79.60
68764;DHT22;55754;52.038;5.566;2023-04-03T00:13:04;4.80;79.70
68764;DHT22;55754;52.038;5.566;2023-04-03T00:15:30;4.80;79.80
68764;DHT22;55754;52.038;5.566;2023-04-03T00:17:56;4.80;80.00
68764;DHT22;55754;52.038;5.566;2023-04-03T00:20:22;4.70;80.00
68764;DHT22;55754;52.038;5.566;2023-04-03T00:22:48;4.70;80.10
68764;DHT22;55754;52.038;5.566;2023-04-03T00:25:14;4.70;80.20
68764;DHT22;55754;52.038;5.566;2023-04-03T00:27:40;4.70;80.20
68764;DHT22;55754;52.038;5.566;2023-04-03T00:30:08;4.60;80.40
68764;DHT22;55754;52.038;5.566;2023-04-03T00:32:37;4.60;80.20
68764;DHT22;55754;52.038;5.566;2023-04-03T00:35:03;4.60;80.40
68764;DHT22;55754;52.038;5.566;2023-04-03T00:37:28;4.60;80.60
68764;DHT22;55754;52.038;5.566;2023-04-03T00:39:54;4.50;80.80
68764;DHT22;55754;52.038;5.566;2023-04-03T00:42:19;4.50;80.70
68764;DHT22;55754;52.038;5.566;2023-04-03T00:47:12;4.40;81.00
68764;DHT22;55754;52.038;5.566;2023-04-03T00:49:38;4.40;81.10
68764;DHT22;55754;52.038;5.566;2023-04-03T00:52:11;4.40;81.00
68764;DHT22;55754;52.038;5.566;2023-04-03T00:54:40;4.40;81.10
68764;DHT22;55754;52.038;5.566;2023-04-03T00:57:07;4.40;81.20
68764;DHT22;55754;52.038;5.566;2023-04-03T00:59:36;4.30;81.20
68764;DHT22;55754;52.038;5.566;2023-04-03T01:02:05;4.30;81.50
68764;DHT22;55754;52.038;5.566;2023-04-03T01:04:33;4.30;81.60
68764;DHT22;55754;52.038;5.566;2023-04-03T01:07:06;4.30;81.70
68764;DHT22;55754;52.038;5.566;2023-04-03T01:09:33;4.30;81.70
68764;DHT22;55754;52.038;5.566;2023-04-03T01:12:25;4.30;81.90
68764;DHT22;55754;52.038;5.566;2023-04-03T01:14:56;4.30;82.10
68764;DHT22;55754;52.038;5.566;2023-04-03T01:17:34;5.50;82.70
68764;DHT22;55754;52.038;5.566;2023-04-03T01:28:06;4.20;82.70
68764;DHT22;55754;52.038;5.566;2023-04-03T01:30:35;4.10;82.90
68764;DHT22;55754;52.038;5.566;2023-04-03T01:33:01;4.10;82.90
68764;DHT22;55754;52.038;5.566;2023-04-03T01:35:27;4.10;82.90
68764;DHT22;55754;52.038;5.566;2023-04-03T01:37:52;4.10;83.00
68764;DHT22;55754;52.038;5.566;2023-04-03T01:40:18;4.10;83.00
68764;DHT22;55754;52.038;5.566;2023-04-03T01:42:44;4.10;83.00
68764;DHT22;55754;52.038;5.566;2023-04-03T01:45:12;4.10;83.30
68764;DHT22;55754;52.038;5.566;2023-04-03T01:47:38;4.00;83.30
68764;DHT22;55754;52.038;5.566;2023-04-03T01:50:04;3.90;83.40
68764;DHT22;55754;52.038;5.566;2023-04-03T01:52:29;4.00;83.60
68764;DHT22;55754;52.038;5.566;2023-04-03T01:54:55;3.90;84.80
68764;DHT22;55754;52.038;5.566;2023-04-03T01:57:21;3.90;84.00
68764;DHT22;55754;52.038;5.566;2023-04-03T01:59:46;3.80;84.20
68764;DHT22;55754;52.038;5.566;2023-04-03T02:02:12;3.80;84.40
68764;DHT22;55754;52.038;5.566;2023-04-03T02:04:40;3.80;84.40
68764;DHT22;55754;52.038;5.566;2023-04-03T02:07:05;3.80;84.90
68764;DHT22;55754;52.038;5.566;2023-04-03T02:09:31;3.80;84.50
68764;DHT22;55754;52.038;5.566;2023-04-03T02:11:56;3.80;84.80
68764;DHT22;55754;52.038;5.566;2023-04-03T02:14:22;3.80;84.90
68764;DHT22;55754;52.038;5.566;2023-04-03T02:16:49;3.70;85.00
68764;DHT22;55754;52.038;5.566;2023-04-03T02:19:15;3.70;85.10
68764;DHT22;55754;52.038;5.566;2023-04-03T02:21:43;3.70;85.50
68764;DHT22;55754;52.038;5.566;2023-04-03T02:24:09;3.70;85.90
68764;DHT22;55754;52.038;5.566;2023-04-03T02:26:34;3.70;86.20
68764;DHT22;55754;52.038;5.566;2023-04-03T02:29:00;3.70;86.60
68764;DHT22;55754;52.038;5.566;2023-04-03T02:31:25;3.60;86.70
68764;DHT22;55754;52.038;5.566;2023-04-03T02:33:51;3.60;87.50
68764;DHT22;55754;52.038;5.566;2023-04-03T02:36:26;3.60;87.10
68764;DHT22;55754;52.038;5.566;2023-04-03T02:38:52;3.60;87.50
68764;DHT22;55754;52.038;5.566;2023-04-03T02:41:17;3.50;87.30
68764;DHT22;55754;52.038;5.566;2023-04-03T02:43:43;3.60;87.80
68764;DHT22;55754;52.038;5.566;2023-04-03T02:46:08;3.60;87.30
68764;DHT22;55754;52.038;5.566;2023-04-03T02:48:34;3.50;87.60
68764;DHT22;55754;52.038;5.566;2023-04-03T02:51:00;3.50;88.10
68764;DHT22;55754;52.038;5.566;2023-04-03T02:53:26;3.50;88.90
68764;DHT22;55754;52.038;5.566;2023-04-03T02:55:52;3.50;88.60
68764;DHT22;55754;52.038;5.566;2023-04-03T02:58:17;3.40;89.00
68764;DHT22;55754;52.038;5.566;2023-04-03T03:00:43;3.40;88.90
68764;DHT22;55754;52.038;5.566;2023-04-03T03:03:08;3.40;88.90
68764;DHT22;55754;52.038;5.566;2023-04-03T03:05:34;3.40;89.60
68764;DHT22;55754;52.038;5.566;2023-04-03T03:08:00;3.40;89.00
68764;DHT22;55754;52.038;5.566;2023-04-03T03:10:25;3.40;88.90
68764;DHT22;55754;52.038;5.566;2023-04-03T03:12:51;3.40;89.70
68764;DHT22;55754;52.038;5.566;2023-04-03T03:15:16;3.40;89.20
68764;DHT22;55754;52.038;5.566;2023-04-03T03:17:43;3.40;89.50
68764;DHT22;55754;52.038;5.566;2023-04-03T03:20:09;3.40;89.50
68764;DHT22;55754;52.038;5.566;2023-04-03T03:22:35;3.40;89.60
68764;DHT22;55754;52.038;5.566;2023-04-03T03:25:01;3.30;89.50
68764;DHT22;55754;52.038;5.566;2023-04-03T03:27:27;3.30;90.00
68764;DHT22;55754;52.038;5.566;2023-04-03T03:29:53;3.30;90.00
68764;DHT22;55754;52.038;5.566;2023-04-03T03:32:18;3.30;90.20
68764;DHT22;55754;52.038;5.566;2023-04-03T03:34:44;3.40;90.10
68764;DHT22;55754;52.038;5.566;2023-04-03T03:37:10;3.30;90.30
68764;DHT22;55754;52.038;5.566;2023-04-03T03:39:35;3.30;90.40
68764;DHT22;55754;52.038;5.566;2023-04-03T03:42:01;3.20;90.40
68764;DHT22;55754;52.038;5.566;2023-04-03T03:44:27;3.20;90.50
68764;DHT22;55754;52.038;5.566;2023-04-03T03:46:54;3.10;90.50
68764;DHT22;55754;52.038;5.566;2023-04-03T03:49:20;3.10;90.50
68764;DHT22;55754;52.038;5.566;2023-04-03T03:51:45;3.90;90.70
68764;DHT22;55754;52.038;5.566;2023-04-03T03:54:11;3.10;90.60
68764;DHT22;55754;52.038;5.566;2023-04-03T03:56:36;3.10;90.50
68764;DHT22;55754;52.038;5.566;2023-04-03T03:59:02;3.10;90.70
68764;DHT22;55754;52.038;5.566;2023-04-03T04:01:28;3.10;90.80
68764;DHT22;55754;52.038;5.566;2023-04-03T04:03:54;3.10;90.70
68764;DHT22;55754;52.038;5.566;2023-04-03T04:06:20;3.10;90.80
68764;DHT22;55754;52.038;5.566;2023-04-03T04:08:46;3.00;90.70
68764;DHT22;55754;52.038;5.566;2023-04-03T04:11:12;3.00;90.80
68764;DHT22;55754;52.038;5.566;2023-04-03T04:13:37;3.00;90.80
68764;DHT22;55754;52.038;5.566;2023-04-03T04:16:03;3.00;91.40
68764;DHT22;55754;52.038;5.566;2023-04-03T04:18:28;3.00;91.00
68764;DHT22;55754;52.038;5.566;2023-04-03T04:20:54;3.00;91.10
68764;DHT22;55754;52.038;5.566;2023-04-03T04:23:20;3.00;91.00
68764;DHT22;55754;52.038;5.566;2023-04-03T04:25:49;3.00;91.00
68764;DHT22;55754;52.038;5.566;2023-04-03T04:28:15;3.00;91.00
68764;DHT22;55754;52.038;5.566;2023-04-03T04:30:41;3.00;91.10
68764;DHT22;55754;52.038;5.566;2023-04-03T04:33:07;2.90;91.10
68764;DHT22;55754;52.038;5.566;2023-04-03T04:35:33;3.00;91.20
68764;DHT22;55754;52.038;5.566;2023-04-03T04:37:59;3.00;91.10
68764;DHT22;55754;52.038;5.566;2023-04-03T04:40:25;3.00;91.20
68764;DHT22;55754;52.038;5.566;2023-04-03T04:42:50;3.00;91.40
68764;DHT22;55754;52.038;5.566;2023-04-03T04:45:16;3.00;91.30
68764;DHT22;55754;52.038;5.566;2023-04-03T04:47:42;2.90;91.20
68764;DHT22;55754;52.038;5.566;2023-04-03T04:50:08;3.40;91.30
68764;DHT22;55754;52.038;5.566;2023-04-03T04:52:33;2.90;91.30
68764;DHT22;55754;52.038;5.566;2023-04-03T04:54:59;2.90;91.20
68764;DHT22;55754;52.038;5.566;2023-04-03T04:57:25;2.90;91.30
68764;DHT22;55754;52.038;5.566;2023-04-03T04:59:53;2.90;91.30
68764;DHT22;55754;52.038;5.566;2023-04-03T05:02:19;2.90;91.40
68764;DHT22;55754;52.038;5.566;2023-04-03T05:04:44;2.90;91.30
68764;DHT22;55754;52.038;5.566;2023-04-03T05:07:10;2.90;91.30
68764;DHT22;55754;52.038;5.566;2023-04-03T05:09:36;2.90;91.40
68764;DHT22;55754;52.038;5.566;2023-04-03T05:12:02;2.90;91.40
68764;DHT22;55754;52.038;5.566;2023-04-03T05:14:28;2.90;91.40
68764;DHT22;55754;52.038;5.566;2023-04-03T05:16:57;2.80;91.30
68764;DHT22;55754;52.038;5.566;2023-04-03T05:19:23;2.80;91.50
68764;DHT22;55754;52.038;5.566;2023-04-03T05:21:51;2.80;91.40
68764;DHT22;55754;52.038;5.566;2023-04-03T05:24:17;2.90;91.30
68764;DHT22;55754;52.038;5.566;2023-04-03T05:26:43;2.80;91.40
68764;DHT22;55754;52.038;5.566;2023-04-03T05:29:09;2.90;91.40
68764;DHT22;55754;52.038;5.566;2023-04-03T05:31:35;3.10;91.80
68764;DHT22;55754;52.038;5.566;2023-04-03T05:34:00;3.40;91.30
68764;DHT22;55754;52.038;5.566;2023-04-03T05:36:26;3.70;90.90
68764;DHT22;55754;52.038;5.566;2023-04-03T05:38:52;4.00;90.20
68764;DHT22;55754;52.038;5.566;2023-04-03T05:41:19;4.30;89.70
68764;DHT22;55754;52.038;5.566;2023-04-03T05:43:46;4.60;89.10
68764;DHT22;55754;52.038;5.566;2023-04-03T05:46:14;4.90;87.10
68764;DHT22;55754;52.038;5.566;2023-04-03T05:48:40;5.20;86.90
68764;DHT22;55754;52.038;5.566;2023-04-03T05:51:06;5.50;85.70
68764;DHT22;55754;52.038;5.566;2023-04-03T05:53:35;5.70;85.60
68764;DHT22;55754;52.038;5.566;2023-04-03T05:56:03;5.90;83.90
68764;DHT22;55754;52.038;5.566;2023-04-03T05:58:28;6.00;81.30
68764;DHT22;55754;52.038;5.566;2023-04-03T06:00:54;6.20;81.80
68764;DHT22;55754;52.038;5.566;2023-04-03T06:03:20;6.50;81.00
68764;DHT22;55754;52.038;5.566;2023-04-03T06:05:45;6.40;77.40
68764;DHT22;55754;52.038;5.566;2023-04-03T06:08:11;6.40;77.70
68764;DHT22;55754;52.038;5.566;2023-04-03T06:10:38;6.60;78.30
68764;DHT22;55754;52.038;5.566;2023-04-03T06:13:03;6.60;76.70
68764;DHT22;55754;52.038;5.566;2023-04-03T06:15:29;6.80;77.80
68764;DHT22;55754;52.038;5.566;2023-04-03T06:17:55;7.00;77.00
68764;DHT22;55754;52.038;5.566;2023-04-03T06:20:20;7.20;76.50
68764;DHT22;55754;52.038;5.566;2023-04-03T06:22:47;7.00;75.00
68764;DHT22;55754;52.038;5.566;2023-04-03T06:25:13;6.00;74.60
68764;DHT22;55754;52.038;5.566;2023-04-03T06:27:39;6.70;74.50
68764;DHT22;55754;52.038;5.566;2023-04-03T06:30:11;6.60;74.50
68764;DHT22;55754;52.038;5.566;2023-04-03T06:32:39;6.40;73.40
68764;DHT22;55754;52.038;5.566;2023-04-03T06:35:06;6.20;75.00
68764;DHT22;55754;52.038;5.566;2023-04-03T06:37:32;6.10;75.30
68764;DHT22;55754;52.038;5.566;2023-04-03T06:39:58;6.00;75.00
68764;DHT22;55754;52.038;5.566;2023-04-03T06:42:25;5.90;74.80
68764;DHT22;55754;52.038;5.566;2023-04-03T06:44:51;5.70;75.50
68764;DHT22;55754;52.038;5.566;2023-04-03T06:47:16;5.80;75.60
68764;DHT22;55754;52.038;5.566;2023-04-03T06:49:43;5.70;76.20
68764;DHT22;55754;52.038;5.566;2023-04-03T06:52:09;5.50;75.30
68764;DHT22;55754;52.038;5.566;2023-04-03T06:54:40;5.50;75.20
68764;DHT22;55754;52.038;5.566;2023-04-03T06:57:06;5.50;75.80
68764;DHT22;55754;52.038;5.566;2023-04-03T06:59:32;5.60;75.90
68764;DHT22;55754;52.038;5.566;2023-04-03T07:01:57;5.50;76.20
68764;DHT22;55754;52.038;5.566;2023-04-03T07:04:25;5.50;75.80
68764;DHT22;55754;52.038;5.566;2023-04-03T07:06:50;5.30;75.60
68764;DHT22;55754;52.038;5.566;2023-04-03T07:09:16;5.40;75.70
68764;DHT22;55754;52.038;5.566;2023-04-03T07:11:41;5.40;76.50
68764;DHT22;55754;52.038;5.566;2023-04-03T07:14:10;5.50;76.00
68764;DHT22;55754;52.038;5.566;2023-04-03T07:16:36;5.50;76.30
68764;DHT22;55754;52.038;5.566;2023-04-03T07:19:02;5.50;76.30
68764;DHT22;55754;52.038;5.566;2023-04-03T07:21:31;5.50;75.60
68764;DHT22;55754;52.038;5.566;2023-04-03T07:23:56;5.50;75.30
68764;DHT22;55754;52.038;5.566;2023-04-03T07:26:23;5.50;75.10
68764;DHT22;55754;52.038;5.566;2023-04-03T07:28:49;5.60;75.00
68764;DHT22;55754;52.038;5.566;2023-04-03T07:31:15;5.60;74.20
68764;DHT22;55754;52.038;5.566;2023-04-03T07:33:42;5.60;74.20
68764;DHT22;55754;52.038;5.566;2023-04-03T07:36:15;5.70;74.70
68764;DHT22;55754;52.038;5.566;2023-04-03T07:38:42;5.80;74.20
68764;DHT22;55754;52.038;5.566;2023-04-03T07:41:12;5.80;72.70
68764;DHT22;55754;52.038;5.566;2023-04-03T07:43:39;5.80;73.30
68764;DHT22;55754;52.038;5.566;2023-04-03T07:46:05;5.80;73.20
68764;DHT22;55754;52.038;5.566;2023-04-03T07:48:30;5.80;71.10
68764;DHT22;55754;52.038;5.566;2023-04-03T07:50:59;5.90;72.20
68764;DHT22;55754;52.038;5.566;2023-04-03T07:53:25;5.90;72.50
68764;DHT22;55754;52.038;5.566;2023-04-03T07:55:51;5.90;72.30
68764;DHT22;55754;52.038;5.566;2023-04-03T07:58:20;6.00;71.40
68764;DHT22;55754;52.038;5.566;2023-04-03T08:00:47;5.90;69.70
68764;DHT22;55754;52.038;5.566;2023-04-03T08:03:13;6.00;69.00
68764;DHT22;55754;52.038;5.566;2023-04-03T08:05:41;5.90;66.20
68764;DHT22;55754;52.038;5.566;2023-04-03T08:08:07;6.00;66.60
68764;DHT22;55754;52.038;5.566;2023-04-03T08:10:33;6.10;67.80
68764;DHT22;55754;52.038;5.566;2023-04-03T08:13:00;6.20;68.50
68764;DHT22;55754;52.038;5.566;2023-04-03T08:15:26;6.30;67.40
68764;DHT22;55754;52.038;5.566;2023-04-03T08:17:52;6.50;67.90
68764;DHT22;55754;52.038;5.566;2023-04-03T08:20:18;6.50;64.10
68764;DHT22;55754;52.038;5.566;2023-04-03T08:22:43;6.50;64.70
68764;DHT22;55754;52.038;5.566;2023-04-03T08:25:09;6.50;63.90
68764;DHT22;55754;52.038;5.566;2023-04-03T08:27:35;6.50;61.70
68764;DHT22;55754;52.038;5.566;2023-04-03T08:30:00;6.50;62.40
68764;DHT22;55754;52.038;5.566;2023-04-03T08:32:26;6.60;63.30
68764;DHT22;55754;52.038;5.566;2023-04-03T08:34:52;6.70;60.20
68764;DHT22;55754;52.038;5.566;2023-04-03T08:37:18;6.80;58.70
68764;DHT22;55754;52.038;5.566;2023-04-03T08:39:44;6.80;55.80
68764;DHT22;55754;52.038;5.566;2023-04-03T08:45:14;6.80;52.00
68764;DHT22;55754;52.038;5.566;2023-04-03T08:47:55;6.90;54.80
68764;DHT22;55754;52.038;5.566;2023-04-03T08:50:50;7.00;54.80
68764;DHT22;55754;52.038;5.566;2023-04-03T08:53:22;7.10;54.90
68764;DHT22;55754;52.038;5.566;2023-04-03T08:55:50;7.20;54.10
68764;DHT22;55754;52.038;5.566;2023-04-03T08:58:19;7.20;49.80
68764;DHT22;55754;52.038;5.566;2023-04-03T09:03:18;7.20;51.50
68764;DHT22;55754;52.038;5.566;2023-04-03T09:08:31;7.40;50.80
68764;DHT22;55754;52.038;5.566;2023-04-03T09:11:25;7.40;45.50
68764;DHT22;55754;52.038;5.566;2023-04-03T09:16:55;7.30;46.10
68764;DHT22;55754;52.038;5.566;2023-04-03T09:24:45;7.50;42.90
68764;DHT22;55754;52.038;5.566;2023-04-03T09:27:12;7.60;40.60
68764;DHT22;55754;52.038;5.566;2023-04-03T09:29:43;7.70;40.60
68764;DHT22;55754;52.038;5.566;2023-04-03T09:32:21;7.60;39.50
68764;DHT22;55754;52.038;5.566;2023-04-03T09:34:48;7.60;39.30
68764;DHT22;55754;52.038;5.566;2023-04-03T09:37:34;7.70;40.20
68764;DHT22;55754;52.038;5.566;2023-04-03T09:40:02;7.80;40.50
68764;DHT22;55754;52.038;5.566;2023-04-03T09:42:30;7.80;40.80
68764;DHT22;55754;52.038;5.566;2023-04-03T09:45:04;7.80;40.30
68764;DHT22;55754;52.038;5.566;2023-04-03T09:47:33;7.90;40.30
68764;DHT22;55754;52.038;5.566;2023-04-03T09:52:39;8.00;37.70
68764;DHT22;55754;52.038;5.566;2023-04-03T09:55:10;8.10;35.90
68764;DHT22;55754;52.038;5.566;2023-04-03T09:57:38;7.90;35.70
68764;DHT22;55754;52.038;5.566;2023-04-03T10:00:05;8.00;37.70
68764;DHT22;55754;52.038;5.566;2023-04-03T10:02:35;8.00;35.70
68764;DHT22;55754;52.038;5.566;2023-04-03T10:05:03;8.00;35.20
68764;DHT22;55754;52.038;5.566;2023-04-03T10:07:35;8.10;33.80
68764;DHT22;55754;52.038;5.566;2023-04-03T10:10:15;8.10;34.90
68764;DHT22;55754;52.038;5.566;2023-04-03T10:12:43;8.20;34.70
68764;DHT22;55754;52.038;5.566;2023-04-03T10:15:13;8.20;35.60
68764;DHT22;55754;52.038;5.566;2023-04-03T10:17:59;8.40;37.30
68764;DHT22;55754;52.038;5.566;2023-04-03T10:20:44;8.40;34.20
68764;DHT22;55754;52.038;5.566;2023-04-03T10:23:42;8.30;33.20
68764;DHT22;55754;52.038;5.566;2023-04-03T10:29:06;8.50;34.60
68764;DHT22;55754;52.038;5.566;2023-04-03T10:31:43;8.40;33.40
68764;DHT22;55754;52.038;5.566;2023-04-03T10:34:21;8.50;32.50
68764;DHT22;55754;52.038;5.566;2023-04-03T10:36:51;8.50;32.50
68764;DHT22;55754;52.038;5.566;2023-04-03T10:39:53;8.50;33.80
68764;DHT22;55754;52.038;5.566;2023-04-03T10:56:15;8.90;36.60
68764;DHT22;55754;52.038;5.566;2023-04-03T10:58:48;8.90;36.40
68764;DHT22;55754;52.038;5.566;2023-04-03T11:01:22;8.80;35.80
68764;DHT22;55754;52.038;5.566;2023-04-03T11:04:00;8.90;37.30
68764;DHT22;55754;52.038;5.566;2023-04-03T11:06:37;8.90;36.70
68764;DHT22;55754;52.038;5.566;2023-04-03T11:09:33;8.80;36.40
68764;DHT22;55754;52.038;5.566;2023-04-03T11:12:17;9.00;37.40
68764;DHT22;55754;52.038;5.566;2023-04-03T11:14:45;9.00;38.70
68764;DHT22;55754;52.038;5.566;2023-04-03T11:17:22;9.10;38.00
68764;DHT22;55754;52.038;5.566;2023-04-03T11:22:33;9.10;38.40
68764;DHT22;55754;52.038;5.566;2023-04-03T11:27:45;9.30;37.80
68764;DHT22;55754;52.038;5.566;2023-04-03T11:33:24;9.50;38.70
68764;DHT22;55754;52.038;5.566;2023-04-03T11:35:55;9.70;39.50
68764;DHT22;55754;52.038;5.566;2023-04-03T11:38:26;9.80;39.30
68764;DHT22;55754;52.038;5.566;2023-04-03T11:40:55;9.80;39.60
68764;DHT22;55754;52.038;5.566;2023-04-03T11:43:26;9.80;38.20
68764;DHT22;55754;52.038;5.566;2023-04-03T11:46:03;9.80;38.00
68764;DHT22;55754;52.038;5.566;2023-04-03T11:50:58;9.80;38.30
68764;DHT22;55754;52.038;5.566;2023-04-03T11:53:50;9.90;39.30
68764;DHT22;55754;52.038;5.566;2023-04-03T11:59:15;9.80;37.50
68764;DHT22;55754;52.038;5.566;2023-04-03T12:04:11;9.80;36.70
68764;DHT22;55754;52.038;5.566;2023-04-03T12:09:33;9.80;36.90
68764;DHT22;55754;52.038;5.566;2023-04-03T12:14:51;9.80;38.00
68764;DHT22;55754;52.038;5.566;2023-04-03T12:17:26;9.90;38.60
68764;DHT22;55754;52.038;5.566;2023-04-03T12:19:52;10.00;37.80
68764;DHT22;55754;52.038;5.566;2023-04-03T12:22:20;10.10;37.70
68764;DHT22;55754;52.038;5.566;2023-04-03T12:24:49;10.00;37.00
68764;DHT22;55754;52.038;5.566;2023-04-03T12:27:27;10.10;37.40
68764;DHT22;55754;52.038;5.566;2023-04-03T12:43:42;10.10;37.60
68764;DHT22;55754;52.038;5.566;2023-04-03T12:46:17;10.10;37.90
68764;DHT22;55754;52.038;5.566;2023-04-03T12:48:52;10.10;37.50
68764;DHT22;55754;52.038;5.566;2023-04-03T12:51:43;10.00;37.50
68764;DHT22;55754;52.038;5.566;2023-04-03T12:56:47;9.90;37.40
68764;DHT22;55754;52.038;5.566;2023-04-03T12:59:21;9.90;37.80
68764;DHT22;55754;52.038;5.566;2023-04-03T13:01:58;9.90;37.30
68764;DHT22;55754;52.038;5.566;2023-04-03T13:04:25;9.90;37.60
68764;DHT22;55754;52.038;5.566;2023-04-03T13:06:52;9.90;37.80
68764;DHT22;55754;52.038;5.566;2023-04-03T13:14:24;10.20;39.40
68764;DHT22;55754;52.038;5.566;2023-04-03T13:16:55;10.10;38.50
68764;DHT22;55754;52.038;5.566;2023-04-03T13:19:23;10.10;39.10
68764;DHT22;55754;52.038;5.566;2023-04-03T13:21:56;10.10;40.00
68764;DHT22;55754;52.038;5.566;2023-04-03T13:24:24;10.10;38.80
68764;DHT22;55754;52.038;5.566;2023-04-03T13:26:51;10.10;39.70
68764;DHT22;55754;52.038;5.566;2023-04-03T13:29:26;10.00;38.90
68764;DHT22;55754;52.038;5.566;2023-04-03T13:31:55;10.00;36.90
68764;DHT22;55754;52.038;5.566;2023-04-03T13:34:23;10.10;37.80
68764;DHT22;55754;52.038;5.566;2023-04-03T13:36:56;10.00;36.70
68764;DHT22;55754;52.038;5.566;2023-04-03T13:39:33;9.90;36.90
68764;DHT22;55754;52.038;5.566;2023-04-03T13:42:02;9.90;38.10
68764;DHT22;55754;52.038;5.566;2023-04-03T13:44:39;9.90;38.00
68764;DHT22;55754;52.038;5.566;2023-04-03T13:53:16;10.00;39.80
68764;DHT22;55754;52.038;5.566;2023-04-03T13:55:39;10.00;39.40
68764;DHT22;55754;52.038;5.566;2023-04-03T13:58:28;10.00;39.80
68764;DHT22;55754;52.038;5.566;2023-04-03T14:01:19;10.00;39.40
68764;DHT22;55754;52.038;5.566;2023-04-03T14:03:52;10.00;37.50
68764;DHT22;55754;52.038;5.566;2023-04-03T14:06:18;10.00;39.10
68764;DHT22;55754;52.038;5.566;2023-04-03T14:08:44;10.10;39.30
68764;DHT22;55754;52.038;5.566;2023-04-03T14:11:16;10.00;38.60
68764;DHT22;55754;52.038;5.566;2023-04-03T14:13:42;10.00;39.90
68764;DHT22;55754;52.038;5.566;2023-04-03T14:16:13;10.00;38.50
68764;DHT22;55754;52.038;5.566;2023-04-03T14:18:40;10.00;39.10
68764;DHT22;55754;52.038;5.566;2023-04-03T14:21:05;10.00;39.90
68764;DHT22;55754;52.038;5.566;2023-04-03T14:23:31;10.00;38.70
68764;DHT22;55754;52.038;5.566;2023-04-03T14:25:58;10.10;39.50
68764;DHT22;55754;52.038;5.566;2023-04-03T14:28:25;9.90;38.20
68764;DHT22;55754;52.038;5.566;2023-04-03T14:30:51;9.90;39.50
68764;DHT22;55754;52.038;5.566;2023-04-03T14:33:20;9.90;39.70
68764;DHT22;55754;52.038;5.566;2023-04-03T14:35:47;9.90;40.00
68764;DHT22;55754;52.038;5.566;2023-04-03T14:38:22;9.90;39.40
68764;DHT22;55754;52.038;5.566;2023-04-03T14:40:48;9.90;39.60
68764;DHT22;55754;52.038;5.566;2023-04-03T14:43:14;9.90;40.10
68764;DHT22;55754;52.038;5.566;2023-04-03T14:45:40;10.10;40.30
68764;DHT22;55754;52.038;5.566;2023-04-03T14:48:11;10.00;40.30
68764;DHT22;55754;52.038;5.566;2023-04-03T14:50:41;10.00;40.90
68764;DHT22;55754;52.038;5.566;2023-04-03T14:53:07;10.10;41.40
68764;DHT22;55754;52.038;5.566;2023-04-03T14:55:33;10.10;41.30
68764;DHT22;55754;52.038;5.566;2023-04-03T14:58:01;10.00;40.70
68764;DHT22;55754;52.038;5.566;2023-04-03T15:00:27;10.00;40.70
68764;DHT22;55754;52.038;5.566;2023-04-03T15:02:53;9.90;40.90
68764;DHT22;55754;52.038;5.566;2023-04-03T15:05:18;9.90;40.80
68764;DHT22;55754;52.038;5.566;2023-04-03T15:07:54;9.90;41.90
68764;DHT22;55754;52.038;5.566;2023-04-03T15:10:23;9.90;41.30
68764;DHT22;55754;52.038;5.566;2023-04-03T15:12:50;9.90;41.70
68764;DHT22;55754;52.038;5.566;2023-04-03T15:15:17;9.90;42.30
68764;DHT22;55754;52.038;5.566;2023-04-03T15:17:50;9.90;41.80
68764;DHT22;55754;52.038;5.566;2023-04-03T15:20:22;9.70;40.80
68764;DHT22;55754;52.038;5.566;2023-04-03T15:22:48;9.70;42.00
68764;DHT22;55754;52.038;5.566;2023-04-03T15:25:14;9.80;42.80
68764;DHT22;55754;52.038;5.566;2023-04-03T15:27:43;9.80;42.70
68764;DHT22;55754;52.038;5.566;2023-04-03T15:30:14;9.80;42.80
68764;DHT22;55754;52.038;5.566;2023-04-03T15:32:40;9.70;42.50
68764;DHT22;55754;52.038;5.566;2023-04-03T15:35:06;9.70;42.20
68764;DHT22;55754;52.038;5.566;2023-04-03T15:37:31;9.70;42.40
68764;DHT22;55754;52.038;5.566;2023-04-03T15:39:57;9.70;42.30
68764;DHT22;55754;52.038;5.566;2023-04-03T15:42:23;9.60;42.20
68764;DHT22;55754;52.038;5.566;2023-04-03T15:44:48;9.60;42.40
68764;DHT22;55754;52.038;5.566;2023-04-03T15:47:14;9.60;43.10
68764;DHT22;55754;52.038;5.566;2023-04-03T15:49:40;9.60;43.20
68764;DHT22;55754;52.038;5.566;2023-04-03T15:52:05;9.70;43.70
68764;DHT22;55754;52.038;5.566;2023-04-03T15:54:37;9.60;43.40
68764;DHT22;55754;52.038;5.566;2023-04-03T15:57:02;9.60;43.80
68764;DHT22;55754;52.038;5.566;2023-04-03T15:59:28;9.60;43.40
68764;DHT22;55754;52.038;5.566;2023-04-03T16:01:56;9.60;43.70
68764;DHT22;55754;52.038;5.566;2023-04-03T16:04:22;9.60;44.20
68764;DHT22;55754;52.038;5.566;2023-04-03T16:06:48;9.60;44.40
68764;DHT22;55754;52.038;5.566;2023-04-03T16:09:14;9.60;44.70
68764;DHT22;55754;52.038;5.566;2023-04-03T16:11:40;9.50;45.10
68764;DHT22;55754;52.038;5.566;2023-04-03T16:14:07;9.50;45.60
68764;DHT22;55754;52.038;5.566;2023-04-03T16:16:33;9.50;45.60
68764;DHT22;55754;52.038;5.566;2023-04-03T16:18:59;9.50;45.90
68764;DHT22;55754;52.038;5.566;2023-04-03T16:21:24;9.40;44.50
68764;DHT22;55754;52.038;5.566;2023-04-03T16:23:50;9.40;44.80
68764;DHT22;55754;52.038;5.566;2023-04-03T16:26:16;9.40;45.30
68764;DHT22;55754;52.038;5.566;2023-04-03T16:28:43;9.30;45.40
68764;DHT22;55754;52.038;5.566;2023-04-03T16:31:09;9.30;45.90
68764;DHT22;55754;52.038;5.566;2023-04-03T16:33:35;9.30;46.20
68764;DHT22;55754;52.038;5.566;2023-04-03T16:36:03;9.30;46.20
68764;DHT22;55754;52.038;5.566;2023-04-03T16:38:28;9.30;46.40
68764;DHT22;55754;52.038;5.566;2023-04-03T16:40:54;9.30;46.30
68764;DHT22;55754;52.038;5.566;2023-04-03T16:43:22;9.30;46.40
68764;DHT22;55754;52.038;5.566;2023-04-03T16:45:48;9.30;46.10
68764;DHT22;55754;52.038;5.566;2023-04-03T16:48:13;9.30;46.40
68764;DHT22;55754;52.038;5.566;2023-04-03T16:50:39;9.20;46.00
68764;DHT22;55754;52.038;5.566;2023-04-03T16:53:08;9.20;46.70
68764;DHT22;55754;52.038;5.566;2023-04-03T16:55:35;9.20;47.30
68764;DHT22;55754;52.038;5.566;2023-04-03T16:58:01;9.20;46.90
68764;DHT22;55754;52.038;5.566;2023-04-03T17:00:30;9.20;47.20
68764;DHT22;55754;52.038;5.566;2023-04-03T17:02:55;9.10;47.10
68764;DHT22;55754;52.038;5.566;2023-04-03T17:05:21;9.10;46.60
68764;DHT22;55754;52.038;5.566;2023-04-03T17:07:46;9.00;46.30
68764;DHT22;55754;52.038;5.566;2023-04-03T17:10:12;8.90;46.70
68764;DHT22;55754;52.038;5.566;2023-04-03T17:12:38;8.90;48.20
68764;DHT22;55754;52.038;5.566;2023-04-03T17:15:10;8.90;47.10
68764;DHT22;55754;52.038;5.566;2023-04-03T17:17:36;8.80;46.40
68764;DHT22;55754;52.038;5.566;2023-04-03T17:20:02;8.80;47.20
68764;DHT22;55754;52.038;5.566;2023-04-03T17:22:28;8.70;46.90
68764;DHT22;55754;52.038;5.566;2023-04-03T17:24:54;8.80;47.90
68764;DHT22;55754;52.038;5.566;2023-04-03T17:27:20;8.70;47.40